Time;durP1;ratioP1;P1;durP2;ratioP2;P2;SDS_P1;SDS_P2;PMS_P1;PMS_P2;Temp;Humidity;BMP_temperature;BMP_pressure;BME280_temperature;BME280_humidity;BME280_pressure;Samples;Min_cycle;Max_cycle;Signal;HPM_P1;HPM_P2
2024/01/11 00:00:07;;;;;;;3.95;3.42;;;;;;;-0.93;100.00;99222.25;5073003;28;20180;-57
2024/01/11 00:02:32;;;;;;;2.97;2.78;;;;;;;-0.94;100.00;99220.59;5073499;28;20309;-57
2024/01/11 00:04:58;;;;;;;2.90;2.67;;;;;;;-0.45;100.00;99306.44;5073172;28;20180;-56
2024/01/11 00:07:23;;;;;;;4.45;3.00;;;;;;;-1.45;100.00;99137.31;5073161;28;20554;-57
2024/01/11 00:09:49;;;;;;;3.15;2.72;;;;;;;-0.74;100.00;99261.84;5073064;28;20177;-57
2024/01/11 00:12:14;;;;;;;3.50;2.75;;;;;;;-1.21;100.00;99188.69;5072884;28;20219;-57
2024/01/11 00:14:40;;;;;;;5.22;3.70;;;;;;;-0.47;100.00;99292.06;5072915;28;20536;-56
2024/01/11 00:17:05;;;;;;;3.22;2.90;;;;;;;-0.40;100.00;99293.66;5072503;28;20177;-57
2024/01/11 00:19:31;;;;;;;3.00;2.70;;;;;;;-1.03;100.00;99192.72;5072556;28;20264;-57
2024/01/11 00:21:58;;;;;;;3.28;2.97;;;;;;;-0.60;100.00;99260.03;5072817;28;20205;-57
2024/01/11 00:24:23;;;;;;;2.53;2.33;;;;;;;-0.94;100.00;99195.19;5072732;28;20188;-57
2024/01/11 00:26:49;;;;;;;2.85;2.60;;;;;;;-0.48;100.00;99288.66;5072768;28;20174;-57
2024/01/11 00:29:14;;;;;;;2.75;2.55;;;;;;;-0.39;100.00;99290.25;5072676;28;20260;-57
2024/01/11 00:31:40;;;;;;;2.38;2.20;;;;;;;-0.66;100.00;99249.91;5072656;28;20535;-57
2024/01/11 00:34:05;;;;;;;2.33;2.13;;;;;;;-0.76;100.00;99236.44;5072576;28;20196;-57
2024/01/11 00:36:32;;;;;;;2.65;2.30;;;;;;;-1.14;100.00;99175.06;5072529;28;20177;-57
2024/01/11 00:38:58;;;;;;;2.88;2.67;;;;;;;-1.04;100.00;99224.06;5072443;28;20169;-57
2024/01/11 00:41:25;;;;;;;3.70;2.80;;;;;;;-0.76;100.00;99263.56;5072502;28;20180;-57
2024/01/11 00:43:50;;;;;;;2.63;2.42;;;;;;;-0.69;100.00;99265.19;5072401;28;20173;-57
2024/01/11 00:46:16;;;;;;;3.20;2.90;;;;;;;-0.71;100.00;99274.53;5071366;28;20599;-56
2024/01/11 00:48:41;;;;;;;3.00;2.70;;;;;;;-1.24;100.00;99178.56;5072361;28;20650;-57
2024/01/11 00:51:07;;;;;;;3.20;2.85;;;;;;;-0.81;100.00;99214.50;5072243;28;20195;-57
2024/01/11 00:53:33;;;;;;;4.45;2.85;;;;;;;-0.49;100.00;99276.81;5072110;28;20207;-57
2024/01/11 00:55:59;;;;;;;2.75;2.55;;;;;;;-0.55;100.00;99268.41;5072216;28;20188;-57
2024/01/11 00:58:25;;;;;;;3.33;2.40;;;;;;;-0.86;100.00;99206.94;5072218;28;20199;-57
2024/01/11 01:00:52;;;;;;;3.33;2.75;;;;;;;-1.18;100.00;99142.13;5072176;28;20643;-57
2024/01/11 01:03:18;;;;;;;3.00;2.80;;;;;;;-0.77;100.00;99208.53;5072105;28;20176;-57
2024/01/11 01:05:44;;;;;;;3.20;2.90;;;;;;;-1.27;100.00;99148.13;5072107;28;20234;-57
2024/01/11 01:08:10;;;;;;;2.90;2.42;;;;;;;-1.02;100.00;99181.72;5072048;28;20528;-57
2024/01/11 01:10:35;;;;;;;2.97;2.78;;;;;;;-0.53;100.00;99254.00;5071710;28;20177;-57
2024/01/11 01:13:01;;;;;;;2.90;2.70;;;;;;;-0.58;100.00;99217.63;5071964;28;20270;-57
2024/01/11 01:15:26;;;;;;;2.60;2.40;;;;;;;-1.02;100.00;99139.38;5071879;28;20185;-57
2024/01/11 01:17:52;;;;;;;2.58;2.38;;;;;;;-0.75;100.00;99189.03;5071834;28;20221;-57
2024/01/11 01:20:17;;;;;;;2.70;2.50;;;;;;;-0.72;100.00;99183.94;5071874;28;20188;-57
2024/01/11 01:22:43;;;;;;;2.50;2.30;;;;;;;-0.94;100.00;99136.78;5071805;28;20189;-56
2024/01/11 01:25:08;;;;;;;3.13;2.80;;;;;;;-1.02;100.00;99116.53;5071414;28;20579;-57
2024/01/11 01:27:34;;;;;;;2.60;2.40;;;;;;;-0.73;100.00;99155.13;5071939;28;20231;-57
2024/01/11 01:29:59;;;;;;;2.92;2.53;;;;;;;-0.70;100.00;99137.31;5049483;28;20190;-57
2024/01/11 01:32:24;;;;;;;1.92;1.83;;;;;;;-0.66;100.00;99144.03;5049247;28;20293;-57
2024/01/11 01:34:50;;;;;;;1.10;1.10;;;;;;;-0.42;100.00;99198.81;5049262;28;20217;-57
2024/01/11 01:37:15;;;;;;;0.95;0.95;;;;;;;-0.81;100.00;99158.63;5049340;28;20680;-57
2024/01/11 01:39:42;;;;;;;1.10;1.10;;;;;;;-0.52;100.00;99197.22;5049555;28;20224;-56
2024/01/11 01:42:07;;;;;;;1.05;1.05;;;;;;;-0.98;100.00;99114.81;5049272;28;20182;-57
2024/01/11 01:44:33;;;;;;;1.20;1.20;;;;;;;-0.57;100.00;99168.50;5049176;28;20203;-57
2024/01/11 01:47:00;;;;;;;2.45;2.20;;;;;;;-1.00;100.00;99089.41;5049174;28;20226;-57
2024/01/11 01:49:25;;;;;;;3.67;3.15;;;;;;;-0.44;100.00;99170.00;5049175;28;20340;-57
2024/01/11 01:51:53;;;;;;;6.22;3.83;;;;;;;-0.54;100.00;99163.38;5049213;28;20261;-57
2024/01/11 01:54:20;;;;;;;3.50;3.17;;;;;;;-0.55;100.00;99156.59;5048242;28;20301;-57
2024/01/11 01:56:46;;;;;;;3.50;2.92;;;;;;;-0.73;100.00;99106.88;5049381;28;20189;-57
2024/01/11 01:59:12;;;;;;;2.03;1.92;;;;;;;-0.04;100.00;99192.34;5053170;28;20177;-57
2024/01/11 02:01:39;;;;;;;1.42;1.33;;;;;;;0.07;100.00;99186.22;5028549;28;20186;-57
2024/01/11 02:04:05;;;;;;;1.27;1.27;;;;;;;0.09;100.00;99179.44;5033142;28;20703;-57
2024/01/11 02:06:33;;;;;;;1.48;1.27;;;;;;;-0.41;100.00;99096.28;5033101;28;20186;-57
2024/01/11 02:08:59;;;;;;;1.27;1.27;;;;;;;0.08;100.00;99177.72;5033043;28;20221;-56
2024/01/11 02:11:24;;;;;;;1.50;1.40;;;;;;;0.09;100.00;99176.03;5033032;28;20182;-57
2024/01/11 02:13:50;;;;;;;1.42;1.35;;;;;;;-0.17;100.00;99131.50;5032840;28;20210;-57
2024/01/11 02:16:16;;;;;;;1.10;1.10;;;;;;;-0.98;100.00;99023.38;5032926;28;20186;-57
2024/01/11 02:18:41;;;;;;;1.15;1.15;;;;;;;-0.45;100.00;99125.13;5019618;28;20368;-57
2024/01/11 02:21:11;;;;;;;1.13;1.13;;;;;;;-0.44;100.00;99107.31;5013082;28;20183;-57
2024/01/11 02:23:46;;;;;;;1.30;1.30;;;;;;;-0.90;100.00;99052.06;5012992;28;20637;-57
2024/01/11 02:26:14;;;;;;;2.20;1.90;;;;;;;-0.58;100.00;99121.06;5012954;28;20594;-57
2024/01/11 02:28:43;;;;;;;1.45;1.45;;;;;;;-0.26;100.00;99147.72;5012802;28;20187;-57
2024/01/11 02:31:09;;;;;;;1.77;1.67;;;;;;;-0.08;100.00;99158.50;5012889;28;20262;-56
2024/01/11 02:33:35;;;;;;;1.90;1.77;;;;;;;-0.58;100.00;99067.72;5048902;28;20209;-57
2024/01/11 02:36:00;;;;;;;2.60;2.40;;;;;;;-0.36;100.00;99102.13;5054571;28;20224;-57
2024/01/11 02:38:27;;;;;;;2.00;1.90;;;;;;;-0.70;100.00;99047.56;5055123;28;20200;-57
2024/01/11 02:40:54;;;;;;;2.92;2.63;;;;;;;-0.47;100.00;99091.28;5054711;28;20189;-57
2024/01/11 02:43:19;;;;;;;3.17;2.97;;;;;;;-0.47;100.00;99076.03;5054738;28;20186;-56
2024/01/11 02:45:45;;;;;;;3.65;3.35;;;;;;;-0.50;100.00;99086.22;5054567;28;20174;-57
2024/01/11 02:48:10;;;;;;;4.22;3.70;;;;;;;-0.27;100.00;99135.88;5054562;28;20182;-57
2024/01/11 02:50:36;;;;;;;4.75;3.60;;;;;;;-0.21;100.00;99145.97;5054664;28;20181;-57
2024/01/11 02:53:01;;;;;;;5.82;4.22;;;;;;;-0.60;100.00;99077.88;5054474;28;20198;-57
2024/01/11 02:55:27;;;;;;;8.13;5.03;;;;;;;-0.68;100.00;99066.16;5054565;28;20184;-57
2024/01/11 02:57:52;;;;;;;8.18;5.28;;;;;;;-0.51;100.00;99087.09;5054141;28;20672;-57
2024/01/11 03:00:18;;;;;;;7.43;5.22;;;;;;;-0.13;100.00;99152.63;5054726;28;20604;-57
2024/01/11 03:02:43;;;;;;;2.20;2.00;;;;;;;-0.77;100.00;99036.63;5054335;28;20654;-57
2024/01/11 03:05:09;;;;;;;12.68;8.18;;;;;;;0.00;100.00;99146.50;5053972;28;20206;-57
2024/01/11 03:07:34;;;;;;;3.05;2.75;;;;;;;-0.11;100.00;99109.38;5054215;28;20178;-57
2024/01/11 03:10:00;;;;;;;2.75;2.55;;;;;;;-0.55;100.00;99034.63;5053298;28;20527;-56
2024/01/11 03:12:26;;;;;;;1.55;1.48;;;;;;;-0.58;100.00;99080.41;5054341;28;20259;-56
2024/01/11 03:14:51;;;;;;;1.15;1.15;;;;;;;-0.49;100.00;99144.66;5054127;28;20177;-57
2024/01/11 03:17:17;;;;;;;4.57;1.50;;;;;;;-0.88;100.00;99074.03;5055663;28;20558;-56
2024/01/11 03:19:43;;;;;;;1.02;0.95;;;;;;;-0.38;100.00;99154.69;5074052;28;20173;-56
2024/01/11 03:22:08;;;;;;;1.40;1.40;;;;;;;-1.08;100.00;99042.13;5074009;28;20301;-56
2024/01/11 03:24:39;;;;;;;1.08;1.08;;;;;;;-0.46;100.00;99147.19;5073991;28;20666;-56
2024/01/11 03:27:05;;;;;;;1.30;1.30;;;;;;;-0.86;100.00;99063.84;5074049;28;20303;-56
2024/01/11 03:29:31;;;;;;;9.20;5.72;;;;;;;-0.38;100.00;99141.97;5073567;28;20663;-56
2024/01/11 03:31:56;;;;;;;10.35;7.05;;;;;;;-0.42;100.00;99120.84;5073555;28;20294;-57
2024/01/11 03:34:21;;;;;;;7.32;5.35;;;;;;;-0.79;100.00;99089.16;5073682;28;20277;-56
2024/01/11 03:36:47;;;;;;;7.78;5.57;;;;;;;-1.22;100.00;99024.56;5073423;28;20568;-57
2024/01/11 03:39:12;;;;;;;6.10;4.88;;;;;;;-0.86;100.00;99096.88;5073686;28;20169;-57
2024/01/11 03:41:43;;;;;;;7.55;5.32;;;;;;;-0.98;100.00;99048.78;5073708;28;20188;-56
2024/01/11 03:44:09;;;;;;;9.90;6.45;;;;;;;-0.83;100.00;99074.00;5073676;28;20170;-56
2024/01/11 03:46:34;;;;;;;10.02;6.50;;;;;;;-1.07;100.00;99026.06;5073553;28;20181;-56
2024/01/11 03:49:00;;;;;;;8.93;6.20;;;;;;;-0.85;100.00;99060.44;5073467;28;20169;-57
2024/01/11 03:51:26;;;;;;;8.25;5.97;;;;;;;-0.78;100.00;99057.00;5073363;28;20697;-56
2024/01/11 03:53:51;;;;;;;9.07;6.70;;;;;;;-0.77;100.00;99056.13;5073080;28;20200;-57
2024/01/11 03:56:16;;;;;;;10.13;7.20;;;;;;;-0.52;100.00;99110.81;5073371;28;20188;-56
2024/01/11 03:58:44;;;;;;;10.88;7.50;;;;;;;-0.58;100.00;99086.34;5072968;28;20172;-57
2024/01/11 04:01:10;;;;;;;10.63;7.20;;;;;;;-0.65;100.00;99068.66;5073210;28;20620;-57
2024/01/11 04:03:36;;;;;;;9.43;7.82;;;;;;;-0.54;100.00;99076.97;5072874;28;20701;-57
2024/01/11 04:06:01;;;;;;;11.68;7.45;;;;;;;-0.88;100.00;99019.88;5073137;28;20203;-57
2024/01/11 04:08:27;;;;;;;11.02;6.13;;;;;;;-0.24;100.00;99101.97;5072860;28;20190;-57
2024/01/11 04:10:53;;;;;;;1.73;1.63;;;;;;;-0.09;100.00;99112.72;5073097;28;20662;-57
2024/01/11 04:13:18;;;;;;;1.48;1.38;;;;;;;-0.43;100.00;99049.72;5072962;28;20263;-56
2024/01/11 04:15:44;;;;;;;1.48;1.38;;;;;;;-0.34;100.00;99047.03;5073001;28;20178;-57
2024/01/11 04:18:09;;;;;;;1.10;1.10;;;;;;;-0.20;100.00;99073.91;5072958;28;20223;-57
2024/01/11 04:20:34;;;;;;;1.05;1.05;;;;;;;-0.02;100.00;99082.09;5072818;28;20184;-57
2024/01/11 04:23:00;;;;;;;0.98;0.80;;;;;;;-0.49;100.00;98993.88;5072858;28;20192;-57
2024/01/11 04:25:25;;;;;;;1.20;1.20;;;;;;;-0.21;100.00;99047.63;5072760;28;20180;-57
2024/01/11 04:27:51;;;;;;;8.07;5.88;;;;;;;0.08;100.00;99083.59;5072707;28;20562;-57
2024/01/11 04:30:16;;;;;;;7.10;5.80;;;;;;;-0.12;100.00;99057.66;5072723;28;20169;-57
2024/01/11 04:32:42;;;;;;;5.93;4.68;;;;;;;0.06;100.00;99090.44;5072246;28;20238;-57
2024/01/11 04:35:07;;;;;;;6.00;5.38;;;;;;;-0.28;100.00;99038.44;5072552;28;20173;-57
2024/01/11 04:37:35;;;;;;;4.45;3.50;;;;;;;0.00;100.00;99085.44;5072493;28;20189;-57
2024/01/11 04:40:00;;;;;;;5.45;4.57;;;;;;;-0.17;100.00;99073.88;5072483;28;20272;-57
2024/01/11 04:42:29;;;;;;;8.20;5.93;;;;;;;-0.58;100.00;98996.56;5072187;28;20318;-58
2024/01/11 04:44:54;;;;;;;12.95;7.15;;;;;;;-0.17;100.00;99092.50;5071925;28;20634;-58
2024/01/11 04:47:20;;;;;;;14.38;8.43;;;;;;;-0.34;100.00;99047.88;5072654;28;20191;-57
2024/01/11 04:49:45;;;;;;;12.65;8.52;;;;;;;-0.28;100.00;99079.09;5072536;28;20697;-57
2024/01/11 04:52:11;;;;;;;12.98;9.23;;;;;;;-0.86;100.00;98992.75;5072035;28;20170;-57
2024/01/11 04:54:37;;;;;;;13.23;8.93;;;;;;;-0.98;100.00;98992.91;5072319;28;20262;-57
2024/01/11 04:57:03;;;;;;;13.02;9.43;;;;;;;-0.77;100.00;99026.47;5072301;28;20724;-57
2024/01/11 04:59:29;;;;;;;9.57;7.05;;;;;;;-0.38;100.00;99101.28;5072225;28;20264;-57
2024/01/11 05:01:54;;;;;;;10.40;7.07;;;;;;;-0.95;100.00;98977.66;5072293;28;20169;-57
2024/01/11 05:04:19;;;;;;;10.07;6.97;;;;;;;-0.28;100.00;99084.19;5072168;28;20180;-57
2024/01/11 05:06:45;;;;;;;10.10;7.30;;;;;;;-0.99;100.00;98971.75;5072166;28;20183;-56
2024/01/11 05:09:10;;;;;;;10.50;7.00;;;;;;;-0.34;100.00;99069.91;5072108;28;20199;-57
2024/01/11 05:11:36;;;;;;;9.55;6.43;;;;;;;-0.59;100.00;99041.44;5072318;28;20181;-57
2024/01/11 05:14:01;;;;;;;8.68;5.93;;;;;;;-0.32;100.00;99078.31;5071932;28;20574;-57
2024/01/11 05:16:28;;;;;;;7.68;5.28;;;;;;;-0.27;100.00;99078.25;5071559;28;20556;-57
2024/01/11 05:18:55;;;;;;;9.70;6.18;;;;;;;-0.52;100.00;99075.25;5072054;28;20675;-58
2024/01/11 05:21:21;;;;;;;4.72;3.95;;;;;;;-0.37;100.00;99085.22;5071877;28;20623;-57
2024/01/11 05:23:48;;;;;;;1.80;1.70;;;;;;;-0.59;100.00;99078.75;5071820;28;20177;-57
2024/01/11 05:26:15;;;;;;;2.97;2.30;;;;;;;-1.03;100.00;99002.28;5049331;28;20205;-57
2024/01/11 05:28:40;;;;;;;1.48;1.42;;;;;;;-1.00;100.00;99025.13;5049370;28;20664;-57
2024/01/11 05:31:11;;;;;;;1.98;1.88;;;;;;;-1.50;100.00;98953.84;5049333;28;20200;-57
2024/01/11 05:33:38;;;;;;;1.17;1.17;;;;;;;-0.96;100.00;99054.66;5048878;28;20212;-57
2024/01/11 05:36:03;;;;;;;1.80;1.70;;;;;;;-1.09;100.00;99032.84;5049316;28;20272;-57
2024/01/11 05:38:29;;;;;;;1.35;1.30;;;;;;;-1.12;100.00;99027.81;5049255;28;20327;-57
2024/01/11 05:40:55;;;;;;;1.73;1.63;;;;;;;-1.43;100.00;99003.63;5049196;28;20596;-57
2024/01/11 05:43:22;;;;;;;1.20;1.20;;;;;;;-1.33;100.00;99023.00;5049527;28;20306;-57
2024/01/11 05:45:47;;;;;;;2.08;1.85;;;;;;;-1.04;100.00;99067.50;5049111;28;20308;-57
2024/01/11 05:48:13;;;;;;;2.35;2.13;;;;;;;-1.82;100.00;98944.06;5049400;28;20181;-57
2024/01/11 05:50:38;;;;;;;1.70;1.60;;;;;;;-1.71;100.00;98946.50;5049059;28;20236;-57
2024/01/11 05:53:03;;;;;;;1.98;1.88;;;;;;;-1.22;100.00;99018.63;5049073;28;20204;-58
2024/01/11 05:55:29;;;;;;;2.00;1.80;;;;;;;-1.38;100.00;98984.13;5049051;28;20174;-58
2024/01/11 05:57:54;;;;;;;1.35;1.35;;;;;;;-1.58;100.00;98943.78;5066531;28;20185;-57
2024/01/11 06:00:20;;;;;;;3.90;1.77;;;;;;;-0.86;100.00;99056.25;5071160;28;20165;-58
2024/01/11 06:02:45;;;;;;;1.55;1.50;;;;;;;-1.19;100.00;98977.97;5071418;28;20196;-58
2024/01/11 06:05:12;;;;;;;4.10;2.88;;;;;;;-1.09;100.00;98999.84;5071424;28;20169;-58
2024/01/11 06:07:38;;;;;;;1.17;1.17;;;;;;;-0.91;100.00;99032.59;5071363;28;20177;-58
2024/01/11 06:10:06;;;;;;;1.20;1.20;;;;;;;-0.91;100.00;99041.06;5028992;28;20653;-58
2024/01/11 06:12:32;;;;;;;3.20;1.40;;;;;;;-0.93;100.00;99031.78;5028894;28;20229;-58
2024/01/11 06:14:59;;;;;;;2.58;2.38;;;;;;;-0.77;100.00;99043.44;5028999;28;20273;-57
2024/01/11 06:17:24;;;;;;;3.03;2.80;;;;;;;-0.57;100.00;99056.69;5028875;28;20226;-58
2024/01/11 06:19:50;;;;;;;5.13;3.58;;;;;;;-1.13;100.00;98937.25;5029074;28;20190;-56
2024/01/11 06:22:15;;;;;;;3.38;3.08;;;;;;;-1.08;100.00;98943.09;5028835;28;20187;-57
2024/01/11 06:24:41;;;;;;;5.15;4.22;;;;;;;-0.48;100.00;99041.31;5028893;28;20214;-57
2024/01/11 06:27:06;;;;;;;7.22;5.15;;;;;;;-1.11;100.00;98933.00;5028917;28;20189;-57
2024/01/11 06:29:32;;;;;;;5.55;3.45;;;;;;;-0.66;100.00;99003.47;5028811;28;20657;-58
2024/01/11 06:31:57;;;;;;;32.65;15.80;;;;;;;-0.46;100.00;99035.34;5028811;28;20174;-57
2024/01/11 06:34:23;;;;;;;51.00;29.20;;;;;;;-0.88;100.00;98986.84;5028809;28;20199;-58
2024/01/11 06:36:48;;;;;;;58.78;34.40;;;;;;;-1.00;100.00;98974.34;5028811;28;20278;-58
2024/01/11 06:39:14;;;;;;;61.72;33.35;;;;;;;-0.66;100.00;99022.06;5029049;28;20924;-57
2024/01/11 06:41:39;;;;;;;82.75;39.70;;;;;;;-1.10;100.00;98949.94;5060697;28;20284;-57
2024/01/11 06:44:05;;;;;;;87.50;39.97;;;;;;;-0.53;100.00;99033.72;5071791;28;20216;-58
2024/01/11 06:46:30;;;;;;;57.38;27.73;;;;;;;-0.33;100.00;99036.84;5073940;28;20177;-57
2024/01/11 06:48:56;;;;;;;30.50;19.33;;;;;;;-0.39;100.00;99031.00;5074593;28;20185;-57
2024/01/11 06:51:23;;;;;;;23.02;15.70;;;;;;;-0.76;100.00;98956.19;5074899;28;20177;-57
2024/01/11 06:53:49;;;;;;;22.88;15.45;;;;;;;-0.37;100.00;99014.84;5074314;28;20200;-57
2024/01/11 06:56:19;;;;;;;42.08;22.92;;;;;;;-1.08;100.00;98920.25;5074408;28;20181;-57
2024/01/11 06:58:45;;;;;;;47.33;24.67;;;;;;;-1.08;100.00;98921.13;5074425;28;20640;-57
2024/01/11 07:01:11;;;;;;;60.13;27.67;;;;;;;-0.38;100.00;99037.75;5074253;28;20299;-57
2024/01/11 07:03:37;;;;;;;55.42;27.42;;;;;;;-0.72;100.00;99001.84;5074285;28;20196;-57
2024/01/11 07:06:03;;;;;;;53.17;23.88;;;;;;;-0.46;100.00;99054.84;5074412;28;20397;-57
2024/01/11 07:08:29;;;;;;;48.63;23.00;;;;;;;-0.43;100.00;99040.38;5073965;28;20618;-57
2024/01/11 07:10:55;;;;;;;40.75;21.45;;;;;;;-0.36;100.00;99041.94;4992430;28;20266;-57
2024/01/11 07:13:20;;;;;;;36.85;20.52;;;;;;;-0.46;100.00;99034.50;4992397;28;20219;-58
2024/01/11 07:15:47;;;;;;;36.00;17.27;;;;;;;-1.03;100.00;98943.91;4992350;28;20195;-58
2024/01/11 07:18:12;;;;;;;36.80;20.42;;;;;;;-0.58;100.00;98991.47;4992279;28;20191;-58
2024/01/11 07:20:38;;;;;;;39.67;19.83;;;;;;;-0.29;100.00;99053.72;4992255;28;20261;-58
2024/01/11 07:23:03;;;;;;;28.13;16.73;;;;;;;-0.17;100.00;99056.91;4992354;28;20591;-57
2024/01/11 07:25:30;;;;;;;28.77;16.15;;;;;;;-0.72;100.00;98947.69;5007277;28;20191;-58
2024/01/11 07:27:55;;;;;;;24.52;13.65;;;;;;;-0.37;100.00;99003.88;5011830;28;20213;-58
2024/01/11 07:30:21;;;;;;;31.77;13.52;;;;;;;-0.44;100.00;98951.44;5011794;28;20703;-58
2024/01/11 07:32:46;;;;;;;29.27;13.40;;;;;;;0.05;100.00;98992.09;5011637;28;20264;-59
2024/01/11 07:35:13;;;;;;;22.55;12.77;;;;;;;0.40;100.00;99027.94;5011752;28;20191;-59
2024/01/11 07:37:39;;;;;;;19.85;12.57;;;;;;;0.07;100.00;98939.50;5011566;28;20191;-58
2024/01/11 07:40:10;;;;;;;22.15;11.63;;;;;;;0.67;100.00;99012.13;5011577;28;20627;-58
2024/01/11 07:42:37;;;;;;;20.90;12.80;;;;;;;0.29;100.00;98922.94;5060341;28;20208;-58
2024/01/11 07:45:03;;;;;;;23.52;15.07;;;;;;;1.05;100.00;99024.09;5073630;28;20177;-58
2024/01/11 07:47:28;;;;;;;21.60;13.00;;;;;;;0.77;100.00;98966.94;5073551;28;20177;-58
2024/01/11 07:49:55;;;;;;;25.75;15.90;;;;;;;0.54;100.00;98906.31;5073546;28;20177;-58
2024/01/11 07:52:21;;;;;;;30.95;16.30;;;;;;;0.54;100.00;98901.22;5073317;28;20230;-58
2024/01/11 07:54:46;;;;;;;26.30;15.00;;;;;;;1.27;100.00;98998.09;5072708;28;20268;-58
2024/01/11 07:57:11;;;;;;;23.95;14.40;;;;;;;1.00;100.00;98947.75;5073349;28;20276;-58
2024/01/11 07:59:37;;;;;;;26.42;15.07;;;;;;;1.37;100.00;98991.09;5075657;28;20181;-59
2024/01/11 08:02:03;;;;;;;36.80;17.27;;;;;;;1.25;100.00;98961.63;5084304;28;20187;-58
2024/01/11 08:04:30;;;;;;;32.20;17.10;;;;;;;1.58;100.00;98995.69;5093171;28;20180;-58
2024/01/11 08:06:56;;;;;;;33.92;17.30;;;;;;;1.42;100.00;98954.41;5093109;28;20168;-58
2024/01/11 08:09:21;;;;;;;32.28;16.58;;;;;;;1.72;100.00;99004.69;5093066;28;20183;-58
2024/01/11 08:11:47;;;;;;;31.60;16.23;;;;;;;1.31;100.00;98938.53;5093111;28;20172;-58
2024/01/11 08:14:12;;;;;;;24.15;14.95;;;;;;;1.15;100.00;98899.00;5093001;28;20287;-58
2024/01/11 08:16:38;;;;;;;26.60;14.80;;;;;;;1.68;100.00;98971.63;5092927;28;20191;-58
2024/01/11 08:19:04;;;;;;;26.90;13.40;;;;;;;1.43;100.00;98899.16;5069892;28;20201;-58
2024/01/11 08:21:29;;;;;;;21.83;12.75;;;;;;;2.16;100.00;98990.84;5070192;28;20213;-58
2024/01/11 08:23:55;;;;;;;25.70;13.23;;;;;;;2.40;100.00;98992.72;5070129;28;20193;-58
2024/01/11 08:26:21;;;;;;;23.63;12.93;;;;;;;2.11;100.00;98923.75;5070139;28;20173;-58
2024/01/11 08:28:47;;;;;;;25.02;13.50;;;;;;;2.37;100.00;98950.25;5069962;28;20196;-58
2024/01/11 08:31:13;;;;;;;24.75;12.90;;;;;;;2.61;100.00;98990.44;5070058;28;20264;-58
2024/01/11 08:33:39;;;;;;;23.10;14.10;;;;;;;2.02;100.00;98875.50;5069788;28;20363;-58
2024/01/11 08:36:06;;;;;;;24.20;12.95;;;;;;;2.28;100.00;98911.38;5069917;28;20598;-58
2024/01/11 08:38:31;;;;;;;24.35;12.80;;;;;;;2.25;100.00;98909.75;5069927;28;20295;-57
2024/01/11 08:40:58;;;;;;;21.50;13.95;;;;;;;2.67;100.00;98959.59;5069851;28;20181;-57
2024/01/11 08:43:25;;;;;;;24.95;14.38;;;;;;;2.48;100.00;98925.25;5069856;28;20204;-57
2024/01/11 08:45:50;;;;;;;26.52;14.43;;;;;;;2.80;100.00;98967.78;5069749;28;20177;-57
2024/01/11 08:48:16;;;;;;;23.15;14.52;;;;;;;2.56;100.00;98915.66;5069686;28;20177;-57
2024/01/11 08:50:41;;;;;;;25.77;14.63;;;;;;;2.52;100.00;98890.25;5086621;28;20184;-57
2024/01/11 08:53:07;;;;;;;34.80;18.08;;;;;;;2.45;100.00;98899.78;5092163;28;20299;-57
2024/01/11 08:55:33;;;;;;;29.25;17.90;;;;;;;2.95;100.00;98968.16;5091983;28;20181;-57
2024/01/11 08:57:58;;;;;;;22.65;14.10;;;;;;;2.85;100.00;98936.06;5092291;28;20173;-57
2024/01/11 09:00:24;;;;;;;19.20;13.00;;;;;;;2.89;100.00;98950.44;5092185;28;20540;-57
2024/01/11 09:02:49;;;;;;;23.67;12.98;;;;;;;2.68;100.00;98956.16;5092406;28;20532;-57
2024/01/11 09:05:15;;;;;;;20.40;13.07;;;;;;;2.29;100.00;98947.03;5091913;28;20200;-58
2024/01/11 09:07:40;;;;;;;24.70;14.07;;;;;;;2.37;100.00;98944.28;5068001;28;20207;-58
2024/01/11 09:10:08;;;;;;;21.60;13.70;;;;;;;2.21;100.00;98874.94;5069092;28;20189;-57
2024/01/11 09:12:34;;;;;;;21.40;13.75;;;;;;;2.75;100.00;98929.56;5067460;28;20185;-57
2024/01/11 09:15:00;;;;;;;25.70;16.17;;;;;;;2.16;100.00;98835.97;5067939;28;20184;-57
2024/01/11 09:17:25;;;;;;;27.23;14.45;;;;;;;2.89;100.00;98934.25;5068902;28;20265;-57
2024/01/11 09:19:51;;;;;;;22.92;12.50;;;;;;;2.29;100.00;98842.38;5069003;28;20161;-57
2024/01/11 09:22:17;;;;;;;19.13;11.55;;;;;;;2.40;100.00;98863.34;5069116;28;20215;-57
2024/01/11 09:24:42;;;;;;;20.38;11.55;;;;;;;2.24;100.00;98863.81;5069378;28;20207;-57
2024/01/11 09:27:08;;;;;;;23.67;12.48;;;;;;;2.38;100.00;98915.31;5069381;28;20196;-58
2024/01/11 09:29:33;;;;;;;19.05;12.70;;;;;;;1.87;100.00;98851.25;5063729;28;20324;-57
2024/01/11 09:31:59;;;;;;;18.08;11.65;;;;;;;1.87;100.00;98824.91;5057813;28;20196;-58
2024/01/11 09:34:25;;;;;;;26.35;14.90;;;;;;;2.46;100.00;98918.50;5048857;28;20300;-58
2024/01/11 09:36:51;;;;;;;27.52;15.68;;;;;;;2.48;100.00;98902.28;5049060;28;20182;-58
2024/01/11 09:39:17;;;;;;;22.48;13.75;;;;;;;2.58;100.00;98900.28;5064630;28;20347;-58
2024/01/11 09:41:57;;;;;;;24.65;13.80;;;;;;;2.21;100.00;98830.72;5071101;28;20169;-58
2024/01/11 09:44:24;;;;;;;27.45;13.90;;;;;;;2.25;100.00;98805.09;5071600;28;20198;-58
2024/01/11 09:46:49;;;;;;;25.15;13.48;;;;;;;2.94;100.00;98876.19;5071599;28;20238;-58
2024/01/11 09:49:17;;;;;;;24.77;16.50;;;;;;;3.13;100.00;98875.56;5071038;28;20177;-58
2024/01/11 09:51:45;;;;;;;22.00;15.02;;;;;;;2.63;100.00;98756.22;5071558;28;20173;-58
2024/01/11 09:54:11;;;;;;;23.77;14.77;;;;;;;3.04;100.00;98799.16;5071482;28;20208;-58
2024/01/11 09:56:37;;;;;;;26.65;17.23;;;;;;;2.83;100.00;98797.31;5071604;28;20177;-57
2024/01/11 09:59:06;;;;;;;23.83;15.57;;;;;;;2.81;100.00;98781.19;5071163;28;20564;-58
2024/01/11 10:01:31;;;;;;;22.45;14.75;;;;;;;2.82;100.00;98759.88;5071433;28;20220;-57
2024/01/11 10:03:57;;;;;;;20.15;14.80;;;;;;;3.27;100.00;98852.94;5071077;28;20223;-57
2024/01/11 10:06:25;;;;;;;25.95;15.82;;;;;;;3.09;100.00;98794.75;5071308;28;20519;-57
2024/01/11 10:08:51;;;;;;;28.27;15.75;;;;;;;3.28;100.00;98802.66;5028805;28;20742;-57
2024/01/11 10:11:17;;;;;;;24.45;15.57;;;;;;;3.22;100.00;98770.44;5029131;28;20190;-57
2024/01/11 10:13:42;;;;;;;30.35;14.75;;;;;;;3.14;100.00;98784.38;5028855;28;20213;-58
2024/01/11 10:16:10;;;;;;;26.90;15.27;;;;;;;3.46;100.00;98805.44;5009064;28;20624;-58
2024/01/11 10:18:36;;;;;;;24.25;14.43;;;;;;;3.49;100.00;98784.84;5010353;28;20759;-58
2024/01/11 10:21:02;;;;;;;28.27;14.30;;;;;;;3.70;100.00;98802.03;5021626;28;20198;-58
2024/01/11 10:23:28;;;;;;;21.92;13.70;;;;;;;3.92;100.00;98810.59;5032657;28;20295;-58
2024/01/11 10:25:57;;;;;;;20.58;13.48;;;;;;;3.81;100.00;98764.09;5012791;28;20187;-58
2024/01/11 10:28:22;;;;;;;19.92;12.43;;;;;;;3.96;100.00;98770.41;5012981;28;20184;-58
2024/01/11 10:30:48;;;;;;;22.30;14.13;;;;;;;3.60;100.00;98707.72;5012845;28;20248;-58
2024/01/11 10:33:13;;;;;;;20.95;13.07;;;;;;;4.13;100.00;98807.28;5012799;28;20660;-58
2024/01/11 10:35:39;;;;;;;18.65;12.25;;;;;;;3.77;100.00;98744.63;5012761;28;20253;-58
2024/01/11 10:38:09;;;;;;;20.02;13.10;;;;;;;3.99;100.00;98767.72;5013124;28;20702;-58
2024/01/11 10:40:35;;;;;;;25.58;14.23;;;;;;;3.78;100.00;98730.94;5028770;28;20190;-58
2024/01/11 10:43:05;;;;;;;25.02;15.23;;;;;;;3.68;100.00;98724.47;5032409;28;20683;-58
2024/01/11 10:45:38;;;;;;;25.92;16.48;;;;;;;3.53;100.00;98714.81;5032517;28;20190;-58
2024/01/11 10:48:07;;;;;;;30.10;15.77;;;;;;;3.98;100.00;98766.88;5050173;28;20265;-58
2024/01/11 10:50:41;;;;;;;30.67;18.63;;;;;;;3.76;100.00;98726.75;5052246;28;20613;-58
2024/01/11 10:53:12;;;;;;;27.42;18.08;;;;;;;4.24;100.00;98764.19;5052180;28;20284;-58
2024/01/11 10:55:39;;;;;;;34.55;19.52;;;;;;;4.09;100.00;98756.25;5052127;28;20225;-58
2024/01/11 10:58:06;;;;;;;32.75;16.88;;;;;;;3.98;100.00;98743.00;5094636;28;20219;-58
2024/01/11 11:00:34;;;;;;;25.65;15.88;;;;;;;4.17;100.00;98755.06;5094497;28;20168;-58
2024/01/11 11:03:00;;;;;;;25.25;15.30;;;;;;;3.90;100.00;98692.09;5094375;28;20232;-58
2024/01/11 11:05:29;;;;;;;26.70;17.35;;;;;;;3.42;100.00;98588.19;5094350;28;20181;-58
2024/01/11 11:07:56;;;;;;;29.30;17.02;;;;;;;3.82;100.00;98640.38;5094581;28;20261;-57
2024/01/11 11:10:22;;;;;;;31.85;17.60;;;;;;;4.10;100.00;98715.22;5094476;28;20184;-57
2024/01/11 11:12:49;;;;;;;32.95;16.63;;;;;;;3.80;100.00;98652.38;5094430;28;20754;-57
2024/01/11 11:15:15;;;;;;;30.38;18.67;;;;;;;4.25;100.00;98701.00;5094436;28;20212;-57